Time;durP1;ratioP1;P1;durP2;ratioP2;P2;SDS_P1;SDS_P2;PMS_P1;PMS_P2;Temp;Humidity;BMP_temperature;BMP_pressure;BME280_temperature;BME280_humidity;BME280_pressure;Samples;Min_cycle;Max_cycle;Signal;HPM_P1;HPM_P2
2021/11/20 00:00:10;;;;;;;;;;;;;;;16.44;nan;101893.00;5032313;28;19924;-41
2021/11/20 00:02:36;;;;;;;;;;;;;;;16.41;nan;101898.53;5030809;28;19921;-42
2021/11/20 00:05:03;;;;;;;;;;;;;;;16.41;nan;101898.53;5032269;28;20020;-41
2021/11/20 00:07:29;;;;;;;;;;;;;;;16.44;nan;101903.72;5017386;28;19937;-41
2021/11/20 00:09:54;;;;;;;;;;;;;;;16.40;nan;101896.75;5015092;28;19913;-44
2021/11/20 00:12:22;;;;;;;;;;;;;;;16.40;nan;101894.06;5032452;28;19913;-42
2021/11/20 00:14:47;;;;;;;;;;;;;;;16.40;nan;101891.38;5030900;28;19924;-42
2021/11/20 00:17:14;;;;;;;;;;;;;;;16.38;nan;101887.06;5023163;28;20000;-41
2021/11/20 00:19:39;;;;;;;;;;;;;;;16.37;nan;101886.19;5012561;28;20302;-41
2021/11/20 00:22:10;;;;;;;;;;;;;;;16.39;nan;101883.41;5030904;28;20373;-43
2021/11/20 00:24:35;;;;;;;;;;;;;;;16.36;nan;101878.19;5032019;28;20015;-43
2021/11/20 00:27:02;;;;;;;;;;;;;;;16.35;nan;101871.97;5028230;28;20017;-41
2021/11/20 00:29:39;;;;;;;;;;;;;;;16.35;nan;101868.41;5012361;28;20275;-41
2021/11/20 00:32:08;;;;;;;;;;;;;;;16.32;nan;101867.59;5032144;28;20420;-42
2021/11/20 00:34:33;;;;;;;;;;;;;;;16.32;nan;101869.41;5031762;28;20011;-40
2021/11/20 00:36:59;;;;;;;;;;;;;;;16.31;nan;101862.31;5031554;28;20004;-42
2021/11/20 00:39:26;;;;;;;;;;;;;;;16.29;nan;101856.13;5030046;28;19961;-42
2021/11/20 00:41:52;;;;;;;;;;;;;;;16.29;nan;101861.50;5031745;28;20378;-43
2021/11/20 00:44:19;;;;;;;;;;;;;;;16.28;nan;101855.25;5031923;28;20042;-43
2021/11/20 00:46:45;;;;;;;;;;;;;;;16.29;nan;101856.13;5032066;28;20002;-42
2021/11/20 00:49:11;;;;;;;;;;;;;;;16.26;nan;101851.78;5030902;28;19918;-41
2021/11/20 00:51:36;;;;;;;;;;;;;;;16.24;nan;101856.34;5031560;28;19924;-41
2021/11/20 00:54:03;;;;;;;;;;;;;;;16.23;nan;101846.56;5031623;28;19921;-44
2021/11/20 00:56:29;;;;;;;;;;;;;;;16.23;nan;101843.00;5031863;28;19919;-42
2021/11/20 00:58:55;;;;;;;;;;;;;;;16.22;nan;101846.66;5036629;28;20301;-43
2021/11/20 01:01:23;;;;;;;;;;;;;;;16.22;nan;101839.47;5040519;28;19917;-42
2021/11/20 01:03:49;;;;;;;;;;;;;;;16.22;nan;101836.78;5031698;28;19921;-41
2021/11/20 01:06:14;;;;;;;;;;;;;;;16.20;nan;101838.66;5031793;28;19967;-41
2021/11/20 01:08:42;;;;;;;;;;;;;;;16.19;nan;101834.22;5031024;28;19963;-41
2021/11/20 01:11:09;;;;;;;;;;;;;;;16.20;nan;101829.72;5030409;28;19924;-42
2021/11/20 01:13:35;;;;;;;;;;;;;;;16.19;nan;101828.00;5031470;28;19975;-42
2021/11/20 01:16:02;;;;;;;;;;;;;;;16.19;nan;101841.41;5031676;28;19913;-40
2021/11/20 01:18:28;;;;;;;;;;;;;;;16.18;nan;101839.66;5031336;28;19917;-42
2021/11/20 01:20:54;;;;;;;;;;;;;;;16.16;nan;101833.50;5030357;28;19962;-41
2021/11/20 01:23:21;;;;;;;;;;;;;;;16.16;nan;101833.50;5031731;28;20011;-39
2021/11/20 01:25:47;;;;;;;;;;;;;;;16.15;nan;101831.75;5031504;28;20348;-41
2021/11/20 01:28:13;;;;;;;;;;;;;;;16.13;nan;101823.75;5031594;28;19913;-41
2021/11/20 01:30:39;;;;;;;;;;;;;;;16.14;nan;101828.22;5019141;28;20306;-41
2021/11/20 01:33:05;;;;;;;;;;;;;;;16.13;nan;101826.44;5019377;28;19917;-45
2021/11/20 01:35:31;;;;;;;;;;;;;;;16.11;nan;101824.81;5032914;28;19917;-41
2021/11/20 01:37:56;;;;;;;;;;;;;;;16.09;nan;101827.53;5035223;28;19913;-42
2021/11/20 01:40:23;;;;;;;;;;;;;;;16.08;nan;101823.13;5032611;28;20008;-44
2021/11/20 01:42:48;;;;;;;;;;;;;;;16.08;nan;101825.81;5033849;28;20016;-41
2021/11/20 01:45:16;;;;;;;;;;;;;;;16.07;nan;101819.56;5033777;28;19988;-41
2021/11/20 01:47:54;;;;;;;;;;;;;;;16.06;nan;101823.19;5035088;28;19913;-42
2021/11/20 01:50:27;;;;;;;;;;;;;;;16.07;nan;101813.34;5033570;28;19925;-40
2021/11/20 01:53:04;;;;;;;;;;;;;;;16.05;nan;101815.19;5034624;28;19921;-42
2021/11/20 01:55:41;;;;;;;;;;;;;;;16.04;nan;101814.34;5034872;28;19924;-41
2021/11/20 01:58:21;;;;;;;;;;;;;;;16.03;nan;101807.25;5034938;28;20449;-41
2021/11/20 02:00:55;;;;;;;;;;;;;;;16.03;nan;101806.38;5033606;28;19917;-42
2021/11/20 02:03:36;;;;;;;;;;;;;;;16.05;nan;101808.03;5034720;28;20000;-41
2021/11/20 02:06:04;;;;;;;;;;;;;;;16.02;nan;101802.78;5034689;28;19936;-41
2021/11/20 02:08:32;;;;;;;;;;;;;;;16.04;nan;101802.75;5034582;28;19917;-39
2021/11/20 02:11:01;;;;;;;;;;;;;;;16.02;nan;101800.13;5033788;28;19970;-39
2021/11/20 02:13:29;;;;;;;;;;;;;;;16.01;nan;101797.50;5034205;28;19917;-39
2021/11/20 02:15:56;;;;;;;;;;;;;;;16.01;nan;101793.00;5034500;28;20324;-39
2021/11/20 02:18:22;;;;;;;;;;;;;;;15.99;nan;101789.56;5034538;28;20316;-40
2021/11/20 02:20:51;;;;;;;;;;;;;;;15.99;nan;101786.00;5034843;28;20274;-39
2021/11/20 02:23:16;;;;;;;;;;;;;;;15.98;nan;101782.41;5033433;28;20004;-40
2021/11/20 02:25:42;;;;;;;;;;;;;;;15.98;nan;101778.88;5034266;28;20410;-40
2021/11/20 02:28:07;;;;;;;;;;;;;;;15.96;nan;101784.31;5034130;28;19979;-42
2021/11/20 02:30:33;;;;;;;;;;;;;;;15.97;nan;101774.47;5034087;28;19944;-39
2021/11/20 02:33:04;;;;;;;;;;;;;;;15.93;nan;101778.22;5032609;28;19971;-40
2021/11/20 02:35:40;;;;;;;;;;;;;;;15.94;nan;101772.78;5034216;28;19924;-43
2021/11/20 02:38:07;;;;;;;;;;;;;;;15.93;nan;101765.69;5028468;28;19971;-41
2021/11/20 02:40:33;;;;;;;;;;;;;;;15.92;nan;101766.63;5014155;28;19920;-41
2021/11/20 02:42:59;;;;;;;;;;;;;;;15.91;nan;101770.25;5020182;28;20356;-42
2021/11/20 02:45:24;;;;;;;;;;;;;;;15.90;nan;101771.19;5034505;28;20007;-41
2021/11/20 02:47:50;;;;;;;;;;;;;;;15.89;nan;101772.13;5033725;28;20409;-40
2021/11/20 02:50:23;;;;;;;;;;;;;;;15.88;nan;101775.75;5033773;28;19913;-40
2021/11/20 02:52:48;;;;;;;;;;;;;;;15.88;nan;101765.03;5033028;28;19917;-39
2021/11/20 02:55:14;;;;;;;;;;;;;;;15.87;nan;101768.63;5033520;28;19940;-40
2021/11/20 02:57:40;;;;;;;;;;;;;;;15.87;nan;101762.41;5033095;28;20302;-40
2021/11/20 03:00:11;;;;;;;;;;;;;;;15.85;nan;101765.16;5033615;28;20019;-39
2021/11/20 03:02:36;;;;;;;;;;;;;;;15.83;nan;101757.19;5033407;28;19917;-41
2021/11/20 03:05:02;;;;;;;;;;;;;;;15.82;nan;101759.94;5022756;28;20484;-40
2021/11/20 03:07:27;;;;;;;;;;;;;;;15.81;nan;101756.38;5021031;28;20293;-41
2021/11/20 03:09:52;;;;;;;;;;;;;;;15.82;nan;101762.63;5033585;28;20348;-41
2021/11/20 03:12:18;;;;;;;;;;;;;;;15.81;nan;101758.19;5033193;28;19913;-42
2021/11/20 03:14:43;;;;;;;;;;;;;;;15.81;nan;101750.16;5032743;28;20405;-43
2021/11/20 03:17:09;;;;;;;;;;;;;;;15.79;nan;101754.69;5021281;28;19943;-42
2021/11/20 03:19:37;;;;;;;;;;;;;;;15.78;nan;101755.66;5033344;28;20392;-40
2021/11/20 03:22:04;;;;;;;;;;;;;;;15.78;nan;101750.28;5033117;28;19913;-41
2021/11/20 03:24:30;;;;;;;;;;;;;;;15.77;nan;101745.88;5027692;28;19913;-39
2021/11/20 03:26:57;;;;;;;;;;;;;;;15.76;nan;101744.16;5032223;28;20255;-41
2021/11/20 03:29:24;;;;;;;;;;;;;;;15.75;nan;101745.06;5033221;28;19924;-40
2021/11/20 03:31:52;;;;;;;;;;;;;;;15.75;nan;101742.38;5033018;28;19956;-40
2021/11/20 03:34:18;;;;;;;;;;;;;;;15.72;nan;101739.84;5032388;28;19921;-41
2021/11/20 03:36:43;;;;;;;;;;;;;;;15.73;nan;101733.56;5032294;28;19939;-40
2021/11/20 03:39:08;;;;;;;;;;;;;;;15.71;nan;101725.56;5032984;28;19948;-41
2021/11/20 03:41:34;;;;;;;;;;;;;;;15.71;nan;101724.69;5032793;28;20276;-40
2021/11/20 03:44:00;;;;;;;;;;;;;;;15.70;nan;101725.66;5032998;28;19952;-42
2021/11/20 03:46:25;;;;;;;;;;;;;;;15.70;nan;101725.66;5017642;28;20314;-41
2021/11/20 03:48:50;;;;;;;;;;;;;;;15.69;nan;101724.78;5012922;28;20000;-41
2021/11/20 03:51:16;;;;;;;;;;;;;;;15.68;nan;101719.47;5011660;28;20020;-40
2021/11/20 03:53:41;;;;;;;;;;;;;;;15.67;nan;101718.59;5012459;28;19921;-44
2021/11/20 03:56:07;;;;;;;;;;;;;;;15.67;nan;101726.66;5023081;28;19917;-43
2021/11/20 03:58:33;;;;;;;;;;;;;;;15.68;nan;101727.50;5029587;28;20344;-43
2021/11/20 04:01:00;;;;;;;;;;;;;;;15.64;nan;101720.53;5032332;28;19919;-44
2021/11/20 04:03:26;;;;;;;;;;;;;;;15.64;nan;101720.53;5032445;28;20007;-41
2021/11/20 04:05:53;;;;;;;;;;;;;;;15.63;nan;101710.75;5031210;28;20007;-43
2021/11/20 04:08:18;;;;;;;;;;;;;;;15.63;nan;101716.97;5032405;28;19924;-43
2021/11/20 04:10:44;;;;;;;;;;;;;;;15.63;nan;101721.47;5032310;28;19917;-41
2021/11/20 04:13:10;;;;;;;;;;;;;;;15.59;nan;101710.88;5032097;28;20345;-42
2021/11/20 04:15:35;;;;;;;;;;;;;;;15.60;nan;101717.09;5032390;28;19913;-44
2021/11/20 04:18:01;;;;;;;;;;;;;;;15.60;nan;101715.28;5030210;28;20393;-41
2021/11/20 04:20:26;;;;;;;;;;;;;;;15.58;nan;101714.50;5032270;28;19913;-41
2021/11/20 04:22:51;;;;;;;;;;;;;;;15.57;nan;101712.78;5032145;28;19943;-43
2021/11/20 04:25:19;;;;;;;;;;;;;;;15.55;nan;101709.28;5032022;28;20404;-42
2021/11/20 04:27:44;;;;;;;;;;;;;;;15.55;nan;101714.63;5021448;28;19917;-42
2021/11/20 04:30:10;;;;;;;;;;;;;;;15.54;nan;101712.91;5011144;28;19920;-44
2021/11/20 04:32:36;;;;;;;;;;;;;;;15.54;nan;101706.69;5017075;28;19917;-41
2021/11/20 04:35:01;;;;;;;;;;;;;;;15.53;nan;101716.53;5032105;28;19987;-40
2021/11/20 04:37:26;;;;;;;;;;;;;;;15.52;nan;101708.53;5027859;28;20008;-43
2021/11/20 04:39:52;;;;;;;;;;;;;;;15.51;nan;101706.81;5011090;28;19970;-42
2021/11/20 04:42:17;;;;;;;;;;;;;;;15.51;nan;101706.81;5012569;28;19925;-43
2021/11/20 04:44:43;;;;;;;;;;;;;;;15.49;nan;101711.34;5032087;28;20356;-40
2021/11/20 04:47:08;;;;;;;;;;;;;;;15.47;nan;101700.72;5031979;28;19963;-40
2021/11/20 04:49:34;;;;;;;;;;;;;;;15.47;nan;101706.09;5014049;28;19918;-40
2021/11/20 04:51:59;;;;;;;;;;;;;;;15.47;nan;101699.84;5024869;28;19929;-42
2021/11/20 04:54:24;;;;;;;;;;;;;;;15.46;nan;101704.34;5031688;28;19925;-40
2021/11/20 04:56:50;;;;;;;;;;;;;;;15.45;nan;101710.63;5031857;28;19943;-41
2021/11/20 04:59:15;;;;;;;;;;;;;;;15.43;nan;101704.47;5029622;28;19967;-41
2021/11/20 05:01:40;;;;;;;;;;;;;;;15.45;nan;101707.06;5031688;28;20381;-43
2021/11/20 05:04:06;;;;;;;;;;;;;;;15.45;nan;101707.06;5031763;28;20520;-42
2021/11/20 05:06:32;;;;;;;;;;;;;;;15.44;nan;101702.66;5031554;28;19913;-42
2021/11/20 05:09:00;;;;;;;;;;;;;;;15.43;nan;101707.16;5030615;28;19921;-42
2021/11/20 05:11:29;;;;;;;;;;;;;;;15.42;nan;101704.56;5034638;28;20293;-41
2021/11/20 05:13:54;;;;;;;;;;;;;;;15.40;nan;101704.59;5035496;28;20383;-42
2021/11/20 05:16:20;;;;;;;;;;;;;;;15.40;nan;101701.06;5035626;28;19964;-40
2021/11/20 05:18:46;;;;;;;;;;;;;;;15.40;nan;101699.25;5034890;28;19952;-39
2021/11/20 05:21:13;;;;;;;;;;;;;;;15.38;nan;101693.09;5034927;28;19920;-42
2021/11/20 05:23:39;;;;;;;;;;;;;;;15.36;nan;101697.66;5035365;28;19919;-41
2021/11/20 05:26:05;;;;;;;;;;;;;;;15.37;nan;101702.06;5035454;28;20003;-41
2021/11/20 05:28:31;;;;;;;;;;;;;;;15.35;nan;101696.78;5035565;28;20504;-41
2021/11/20 05:30:57;;;;;;;;;;;;;;;15.36;nan;101697.66;5021391;28;19920;-41
2021/11/20 05:33:29;;;;;;;;;;;;;;;15.35;nan;101695.91;5015336;28;20032;-41
2021/11/20 05:35:54;;;;;;;;;;;;;;;15.31;nan;101688.94;5015508;28;19917;-41
2021/11/20 05:38:19;;;;;;;;;;;;;;;15.33;nan;101693.28;5015327;28;20389;-41
2021/11/20 05:40:45;;;;;;;;;;;;;;;15.32;nan;101693.38;5022313;28;19940;-42
2021/11/20 05:43:13;;;;;;;;;;;;;;;15.32;nan;101696.03;5015339;28;20008;-44
2021/11/20 05:45:39;;;;;;;;;;;;;;;15.30;nan;101687.19;5015223;28;19917;-42
2021/11/20 05:48:05;;;;;;;;;;;;;;;15.30;nan;101687.19;5015313;28;19914;-42
2021/11/20 05:50:31;;;;;;;;;;;;;;;15.29;nan;101690.81;5028754;28;19913;-42
2021/11/20 05:52:57;;;;;;;;;;;;;;;15.28;nan;101695.31;5034731;28;19921;-42
2021/11/20 05:55:24;;;;;;;;;;;;;;;15.29;nan;101696.19;5034818;28;19921;-42
2021/11/20 05:57:49;;;;;;;;;;;;;;;15.28;nan;101694.44;5035019;28;20613;-42
2021/11/20 06:00:17;;;;;;;;;;;;;;;15.27;nan;101703.44;5031746;28;19917;-43
2021/11/20 06:02:42;;;;;;;;;;;;;;;15.26;nan;101696.31;5021171;28;19971;-40
2021/11/20 06:05:08;;;;;;;;;;;;;;;15.26;nan;101696.31;5034725;28;20375;-39
2021/11/20 06:07:33;;;;;;;;;;;;;;;15.25;nan;101698.13;5034959;28;19913;-40
2021/11/20 06:09:59;;;;;;;;;;;;;;;15.24;nan;101698.19;5034443;28;19916;-41
2021/11/20 06:12:25;;;;;;;;;;;;;;;15.23;nan;101691.09;5034244;28;19970;-41
2021/11/20 06:14:50;;;;;;;;;;;;;;;15.23;nan;101691.97;5034501;28;19923;-42
2021/11/20 06:17:16;;;;;;;;;;;;;;;15.22;nan;101700.94;5034231;28;19921;-39
2021/11/20 06:19:41;;;;;;;;;;;;;;;15.21;nan;101692.97;5034360;28;19913;-40
2021/11/20 06:22:06;;;;;;;;;;;;;;;15.21;nan;101693.84;5022125;28;19918;-40
2021/11/20 06:24:32;;;;;;;;;;;;;;;15.21;nan;101696.50;5013173;28;19921;-40
2021/11/20 06:26:57;;;;;;;;;;;;;;;15.21;nan;101696.50;5014864;28;19917;-40
2021/11/20 06:29:24;;;;;;;;;;;;;;;15.20;nan;101693.91;5033577;28;20362;-40
2021/11/20 06:31:49;;;;;;;;;;;;;;;15.19;nan;101697.53;5033770;28;19917;-40
2021/11/20 06:34:15;;;;;;;;;;;;;;;15.19;nan;101706.44;5034051;28;20208;-41
2021/11/20 06:36:41;;;;;;;;;;;;;;;15.18;nan;101701.13;5034350;28;20405;-41
2021/11/20 06:39:07;;;;;;;;;;;;;;;15.16;nan;101698.53;5033887;28;19917;-41
2021/11/20 06:41:32;;;;;;;;;;;;;;;15.17;nan;101702.94;5033067;28;19917;-41
2021/11/20 06:43:58;;;;;;;;;;;;;;;15.16;nan;101695.00;5034091;28;19917;-41
2021/11/20 06:46:23;;;;;;;;;;;;;;;15.14;nan;101696.84;5033922;28;20282;-41
2021/11/20 06:48:48;;;;;;;;;;;;;;;15.15;nan;101706.63;5033449;28;19924;-40
2021/11/20 06:51:14;;;;;;;;;;;;;;;15.15;nan;101703.94;5033092;28;19944;-40
2021/11/20 06:53:40;;;;;;;;;;;;;;;15.11;nan;101698.75;5033272;28;20008;-42
2021/11/20 06:56:08;;;;;;;;;;;;;;;15.13;nan;101708.50;5033592;28;19914;-41
2021/11/20 07:01:06;;;;;;;;;;;;;;;15.12;nan;101702.28;5033699;28;20362;-40
2021/11/20 07:03:36;;;;;;;;;;;;;;;15.13;nan;101703.16;5032701;28;19936;-41
2021/11/20 07:06:08;;;;;;;;;;;;;;;15.11;nan;101697.88;5033500;28;19920;-40
2021/11/20 07:08:34;;;;;;;;;;;;;;;15.09;nan;101705.97;5033548;28;19923;-40
2021/11/20 07:11:00;;;;;;;;;;;;;;;15.09;nan;101705.09;5033416;28;19979;-41
2021/11/20 07:13:25;;;;;;;;;;;;;;;15.07;nan;101705.16;5032326;28;19928;-40
2021/11/20 07:15:51;;;;;;;;;;;;;;;15.08;nan;101706.03;5033283;28;19913;-40
2021/11/20 07:18:17;;;;;;;;;;;;;;;15.07;nan;101715.88;5033130;28;19917;-40
2021/11/20 07:20:43;;;;;;;;;;;;;;;15.07;nan;101715.88;5033124;28;19920;-41
2021/11/20 07:23:08;;;;;;;;;;;;;;;15.05;nan;101712.38;5032358;28;19917;-42
2021/11/20 07:25:34;;;;;;;;;;;;;;;15.04;nan;101713.31;5033271;28;19945;-41
2021/11/20 07:28:00;;;;;;;;;;;;;;;15.05;nan;101706.16;5031238;28;19939;-41
2021/11/20 07:30:27;;;;;;;;;;;;;;;15.04;nan;101713.31;5032973;28;19920;-40
2021/11/20 07:32:53;;;;;;;;;;;;;;;15.04;nan;101721.34;5031345;28;19952;-41
2021/11/20 07:35:41;;;;;;;;;;;;;;;15.05;nan;101716.88;5032933;28;19967;-40
2021/11/20 07:38:08;;;;;;;;;;;;;;;15.03;nan;101716.94;5032155;28;19956;-40
2021/11/20 07:40:34;;;;;;;;;;;;;;;15.03;nan;101727.66;5032708;28;19920;-40
2021/11/20 07:43:00;;;;;;;;;;;;;;;15.04;nan;101721.34;5032719;28;20333;-41
2021/11/20 07:45:25;;;;;;;;;;;;;;;15.05;nan;101720.41;5031386;28;20393;-41
2021/11/20 07:47:50;;;;;;;;;;;;;;;15.05;nan;101719.56;5031595;28;19917;-43
2021/11/20 07:50:17;;;;;;;;;;;;;;;15.06;nan;101718.59;5030275;28;19928;-41
2021/11/20 07:52:43;;;;;;;;;;;;;;;15.08;nan;101720.28;5030587;28;19976;-40
2021/11/20 07:55:11;;;;;;;;;;;;;;;15.08;nan;101714.94;5030686;28;20004;-41
2021/11/20 07:57:36;;;;;;;;;;;;;;;15.09;nan;101716.66;5031987;28;19924;-40
2021/11/20 08:00:04;;;;;;;;;;;;;;;15.09;nan;101714.00;5032800;28;19913;-40
2021/11/20 08:02:29;;;;;;;;;;;;;;;15.10;nan;101722.88;5030402;28;20340;-40
2021/11/20 08:04:54;;;;;;;;;;;;;;;15.11;nan;101712.13;5033701;28;19916;-40
2021/11/20 08:07:20;;;;;;;;;;;;;;;15.14;nan;101718.28;5036098;28;19917;-40
2021/11/20 08:09:45;;;;;;;;;;;;;;;15.14;nan;101715.59;5031896;28;20011;-39
2021/11/20 08:12:10;;;;;;;;;;;;;;;15.14;nan;101716.47;5031274;28;20382;-40
2021/11/20 08:14:36;;;;;;;;;;;;;;;15.15;nan;101714.66;5031605;28;20397;-41
2021/11/20 08:17:03;;;;;;;;;;;;;;;15.17;nan;101716.34;5012967;28;19971;-41
2021/11/20 08:19:28;;;;;;;;;;;;;;;15.19;nan;101716.28;5020653;28;19956;-40
2021/11/20 08:21:54;;;;;;;;;;;;;;;15.21;nan;101706.34;5032079;28;19974;-40
2021/11/20 08:24:19;;;;;;;;;;;;;;;15.20;nan;101702.81;5032283;28;20386;-40
2021/11/20 08:26:46;;;;;;;;;;;;;;;15.21;nan;101704.53;5031765;28;19971;-41
2021/11/20 08:29:13;;;;;;;;;;;;;;;15.22;nan;101706.28;5032500;28;19917;-40
2021/11/20 08:31:44;;;;;;;;;;;;;;;15.24;nan;101708.91;5031582;28;19928;-42
2021/11/20 08:34:10;;;;;;;;;;;;;;;15.24;nan;101703.56;5032139;28;19917;-40
2021/11/20 08:36:35;;;;;;;;;;;;;;;15.24;nan;101698.19;5032000;28;19925;-41
2021/11/20 08:39:01;;;;;;;;;;;;;;;15.25;nan;101694.56;5052047;28;20007;-40
2021/11/20 08:41:26;;;;;;;;;;;;;;;15.27;nan;101698.06;5033057;28;19913;-42
2021/11/20 08:43:52;;;;;;;;;;;;;;;15.26;nan;101690.94;5031517;28;20399;-41
2021/11/20 08:46:18;;;;;;;;;;;;;;;15.26;nan;101686.50;5026783;28;19943;-42
2021/11/20 08:48:43;;;;;;;;;;;;;;;15.27;nan;101682.88;5031208;28;19959;-41
2021/11/20 08:51:11;;;;;;;;;;;;;;;15.29;nan;101680.09;5026902;28;19925;-42
2021/11/20 08:53:36;;;;;;;;;;;;;;;15.29;nan;101683.66;5028034;28;20007;-40
2021/11/20 08:56:02;;;;;;;;;;;;;;;15.31;nan;101688.94;5029486;28;20672;-41
2021/11/20 08:58:28;;;;;;;;;;;;;;;15.30;nan;101684.50;5017092;28;19924;-41
2021/11/20 09:00:53;;;;;;;;;;;;;;;15.30;nan;101687.19;5031325;28;19917;-41
2021/11/20 09:03:37;;;;;;;;;;;;;;;15.32;nan;101686.19;5026649;28;19917;-40
2021/11/20 09:06:15;;;;;;;;;;;;;;;15.32;nan;101685.34;5029337;28;19936;-41
2021/11/20 09:08:52;;;;;;;;;;;;;;;15.33;nan;101679.03;5028748;28;20006;-40
2021/11/20 09:11:34;;;;;;;;;;;;;;;15.34;nan;101684.34;5036829;28;19917;-40
2021/11/20 09:14:09;;;;;;;;;;;;;;;15.35;nan;101683.38;5020421;28;19957;-40
2021/11/20 09:16:35;;;;;;;;;;;;;;;15.34;nan;101681.66;5020269;28;19924;-40
2021/11/20 09:19:01;;;;;;;;;;;;;;;15.36;nan;101681.56;5016315;28;20008;-40
2021/11/20 09:21:29;;;;;;;;;;;;;;;15.38;nan;101684.16;5024080;28;19955;-40
2021/11/20 09:23:54;;;;;;;;;;;;;;;15.37;nan;101683.31;5034358;28;19917;-40
2021/11/20 09:26:20;;;;;;;;;;;;;;;15.37;nan;101683.31;5029660;28;19923;-40
2021/11/20 09:28:46;;;;;;;;;;;;;;;15.37;nan;101677.94;5028335;28;20318;-40
2021/11/20 09:31:11;;;;;;;;;;;;;;;15.36;nan;101673.53;5027481;28;19949;-40
2021/11/20 09:33:37;;;;;;;;;;;;;;;15.38;nan;101685.06;5028941;28;20026;-40
2021/11/20 09:36:03;;;;;;;;;;;;;;;15.38;nan;101669.00;5029226;28;19918;-40
2021/11/20 09:38:28;;;;;;;;;;;;;;;15.38;nan;101663.63;5027334;28;19975;-41
2021/11/20 09:40:59;;;;;;;;;;;;;;;15.38;nan;101663.63;5014265;28;19917;-42
2021/11/20 09:43:30;;;;;;;;;;;;;;;15.40;nan;101661.75;5011682;28;19913;-40
2021/11/20 09:46:04;;;;;;;;;;;;;;;15.40;nan;101661.75;5019245;28;19921;-40
2021/11/20 09:48:35;;;;;;;;;;;;;;;15.39;nan;101662.69;5031522;28;19913;-40
2021/11/20 09:51:04;;;;;;;;;;;;;;;15.40;nan;101663.56;5029684;28;19916;-40
2021/11/20 09:53:29;;;;;;;;;;;;;;;15.41;nan;101654.56;5025013;28;19925;-41
2021/11/20 09:56:01;;;;;;;;;;;;;;;15.41;nan;101652.75;5033659;28;19920;-40
2021/11/20 09:58:29;;;;;;;;;;;;;;;15.43;nan;101653.56;5055361;28;19913;-41
2021/11/20 10:01:13;;;;;;;;;;;;;;;15.45;nan;101653.47;5023993;28;19926;-40
2021/11/20 10:03:38;;;;;;;;;;;;;;;15.45;nan;101654.34;5015261;28;19917;-41
2021/11/20 10:06:06;;;;;;;;;;;;;;;15.45;nan;101659.72;5023701;28;19920;-40
2021/11/20 10:08:33;;;;;;;;;;;;;;;15.46;nan;101655.25;5033810;28;20012;-40
2021/11/20 10:11:08;;;;;;;;;;;;;;;15.46;nan;101649.88;5033781;28;20019;-41
2021/11/20 10:13:44;;;;;;;;;;;;;;;15.47;nan;101640.91;5033471;28;20337;-41
2021/11/20 10:16:13;;;;;;;;;;;;;;;15.48;nan;101642.63;5033932;28;19913;-40
2021/11/20 10:18:57;;;;;;;;;;;;;;;15.47;nan;101636.41;5033596;28;20389;-41
2021/11/20 10:21:31;;;;;;;;;;;;;;;15.49;nan;101639.00;5032813;28;20445;-40
2021/11/20 10:24:16;;;;;;;;;;;;;;;15.50;nan;101624.69;5033211;28;19920;-41
2021/11/20 10:26:41;;;;;;;;;;;;;;;15.49;nan;101621.16;5034184;28;19999;-40
2021/11/20 10:29:25;;;;;;;;;;;;;;;15.51;nan;101627.28;5034160;28;20020;-40
2021/11/20 10:32:03;;;;;;;;;;;;;;;15.52;nan;101618.31;5031168;28;19917;-40
2021/11/20 10:34:38;;;;;;;;;;;;;;;15.52;nan;101612.06;5032086;28;20411;-41
2021/11/20 10:37:33;;;;;;;;;;;;;;;15.52;nan;101610.25;5030931;28;19917;-40
2021/11/20 10:40:07;;;;;;;;;;;;;;;15.53;nan;101601.31;5006462;28;19917;-40
2021/11/20 10:42:35;;;;;;;;;;;;;;;15.54;nan;101595.00;5004548;28;19913;-40
2021/11/20 10:45:21;;;;;;;;;;;;;;;15.55;nan;101591.38;5011383;28;19925;-40
2021/11/20 10:47:58;;;;;;;;;;;;;;;15.56;nan;101587.72;5010548;28;20395;-40
2021/11/20 10:50:39;;;;;;;;;;;;;;;15.57;nan;101581.47;5010752;28;20000;-40
2021/11/20 10:53:07;;;;;;;;;;;;;;;15.59;nan;101571.50;5010831;28;19922;-41
2021/11/20 10:55:33;;;;;;;;;;;;;;;15.59;nan;101571.50;5011260;28;20294;-40
2021/11/20 10:57:58;;;;;;;;;;;;;;;15.59;nan;101566.16;5009371;28;19917;-43
2021/11/20 11:00:42;;;;;;;;;;;;;;;15.60;nan;101562.53;4992379;28;19994;-41
2021/11/20 11:03:25;;;;;;;;;;;;;;;15.62;nan;101553.56;4991386;28;20340;-43
2021/11/20 11:05:57;;;;;;;;;;;;;;;15.64;nan;101557.03;4993444;28;19964;-41
2021/11/20 11:08:31;;;;;;;;;;;;;;;15.65;nan;101548.97;4993650;28;19992;-41
2021/11/20 11:11:14;;;;;;;;;;;;;;;15.67;nan;101547.06;5007261;28;19960;-41
2021/11/20 11:13:39;;;;;;;;;;;;;;;15.66;nan;101541.78;5004795;28;19928;-41
2021/11/20 11:16:15;;;;;;;;;;;;;;;15.68;nan;101537.22;4985284;28;20012;-40
2021/11/20 11:18:41;;;;;;;;;;;;;;;15.68;nan;101529.16;5032762;28;19913;-41
2021/11/20 11:21:24;;;;;;;;;;;;;;;15.69;nan;101525.56;5032130;28;19963;-40
2021/11/20 11:24:08;;;;;;;;;;;;;;;15.70;nan;101514.75;5023020;28;19920;-42
2021/11/20 11:26:37;;;;;;;;;;;;;;;15.70;nan;101512.06;5019657;28;19917;-41
2021/11/20 11:29:21;;;;;;;;;;;;;;;15.72;nan;101512.00;5032427;28;19915;-41
2021/11/20 11:31:47;;;;;;;;;;;;;;;15.71;nan;101508.44;5031108;28;19986;-40
2021/11/20 11:34:17;;;;;;;;;;;;;;;15.73;nan;101497.66;5024023;28;19944;-41
2021/11/20 11:36:54;;;;;;;;;;;;;;;15.78;nan;101491.13;5022108;28;19917;-40
2021/11/20 11:39:20;;;;;;;;;;;;;;;15.77;nan;101485.84;5013124;28;20313;-40
2021/11/20 11:41:55;;;;;;;;;;;;;;;15.77;nan;101485.84;5011768;28;19920;-40
2021/11/20 11:44:31;;;;;;;;;;;;;;;15.79;nan;101476.75;5009218;28;19917;-40
2021/11/20 11:47:05;;;;;;;;;;;;;;;15.78;nan;101475.03;5025864;28;19957;-41
2021/11/20 11:49:48;;;;;;;;;;;;;;;15.79;nan;101470.53;5012939;28;19972;-40
2021/11/20 11:52:26;;;;;;;;;;;;;;;15.81;nan;101468.66;5012362;28;19936;-41
2021/11/20 11:55:20;;;;;;;;;;;;;;;15.80;nan;101456.22;5011193;28;19929;-40
2021/11/20 11:57:55;;;;;;;;;;;;;;;15.81;nan;101449.91;5017863;28;19917;-40
2021/11/20 12:00:42;;;;;;;;;;;;;;;15.81;nan;101452.56;5010380;28;20008;-40
2021/11/20 12:03:26;;;;;;;;;;;;;;;15.83;nan;101445.31;5022358;28;19917;-41
2021/11/20 12:06:18;;;;;;;;;;;;;;;15.83;nan;101440.84;5017619;28;19949;-41
2021/11/20 12:08:46;;;;;;;;;;;;;;;15.84;nan;101431.84;5017268;28;20453;-41
2021/11/20 12:11:30;;;;;;;;;;;;;;;15.84;nan;101425.63;5033097;28;20000;-41
2021/11/20 12:14:07;;;;;;;;;;;;;;;15.86;nan;101422.84;5032822;28;19917;-41
2021/11/20 12:16:40;;;;;;;;;;;;;;;15.87;nan;101425.44;5028979;28;19920;-40
2021/11/20 12:19:09;;;;;;;;;;;;;;;15.88;nan;101416.47;5021608;28;19917;-41
2021/11/20 12:21:40;;;;;;;;;;;;;;;15.88;nan;101400.38;5019583;28;19920;-41
2021/11/20 12:24:22;;;;;;;;;;;;;;;15.87;nan;101404.00;5030617;28;19917;-40
2021/11/20 12:26:52;;;;;;;;;;;;;;;15.88;nan;101395.03;5018181;28;19917;-43
2021/11/20 12:29:17;;;;;;;;;;;;;;;15.90;nan;101389.56;5006770;28;19917;-41
2021/11/20 12:31:49;;;;;;;;;;;;;;;15.91;nan;101380.56;5019758;28;19913;-43
2021/11/20 12:34:17;;;;;;;;;;;;;;;15.90;nan;101377.03;5031646;28;20004;-43
2021/11/20 12:36:43;;;;;;;;;;;;;;;15.95;nan;101379.47;5029932;28;19917;-42
2021/11/20 12:39:11;;;;;;;;;;;;;;;15.93;nan;101366.16;5027397;28;20415;-43
2021/11/20 12:42:03;;;;;;;;;;;;;;;15.93;nan;101359.91;5023968;28;20004;-42
2021/11/20 12:44:28;;;;;;;;;;;;;;;15.95;nan;101361.59;5032697;28;19917;-43
2021/11/20 12:47:12;;;;;;;;;;;;;;;15.96;nan;101343.69;5031560;28;19913;-44
2021/11/20 12:49:43;;;;;;;;;;;;;;;15.96;nan;101349.03;5031066;28;20537;-46
2021/11/20 12:52:17;;;;;;;;;;;;;;;15.96;nan;101341.88;5030701;28;19944;-45
2021/11/20 12:54:48;;;;;;;;;;;;;;;15.97;nan;101338.22;5031947;28;19925;-44
2021/11/20 12:57:25;;;;;;;;;;;;;;;15.98;nan;101334.59;5027918;28;19917;-41
2021/11/20 12:59:52;;;;;;;;;;;;;;;16.00;nan;101330.03;5032233;28;19920;-42
2021/11/20 13:02:38;;;;;;;;;;;;;;;16.01;nan;101320.16;5030664;28;19921;-42
2021/11/20 13:05:21;;;;;;;;;;;;;;;16.00;nan;101319.28;5031386;28;19952;-41
2021/11/20 13:07:48;;;;;;;;;;;;;;;16.02;nan;101319.19;5028146;28;19925;-42